Terminal Aerodrome Forecast
Issued by NWS

Home | Current Version | Previous Version | Text Only | Print | Product List | Glossary On
Versions: 1 2 3 4 5 6 7 8 9 10 11 12 13 14 15 16
589
FTUS44 KCRP 280521
TAFALI
TAF
KALI 280521Z 2806/0106 15009KT 5SM BR BKN025
     FM281000 17005KT 3SM BR OVC009 WS020/18040KT
      TEMPO 2810/2813 OVC004
     FM281400 18012G18KT P6SM BKN015
     FM281630 18018G25KT P6SM SCT030
      TEMPO 2817/2819 BKN030
     FM282100 16018G25KT P6SM SCT040 BKN250
     FM010300 15012KT P6SM BKN025 OVC250=

USA.gov is the U.S. government's official web portal to all federal, state and local government web resources and services.